Friday, November 24, 2017, 8:12 AM EST
Back to Local

KBHB, Bar Harbor, Hancock County-bar Harbor Airport

Location: Ellsworth, ME, United States Lat: 44.45
Local Time: 8:12 AM EST (13:12 GMT) Lon: -68.367
Time Zone: US/Eastern Elev: 82 ft

Show me the last for .
Show Decoded

2017-11-24 07:56 METAR KBHB 241256Z AUTO 00000KT 10SM CLR 00/M03 A2996 RMK AO2 SLP148 T00001028
                 FZRANO PNO $ =
2017-11-24 06:56 METAR KBHB 241156Z AUTO 00000KT 10SM CLR M02/M05 A2995 RMK AO2 SLP145 6////
                 7//// T10221050 11006 21033 53012 FZRANO PNO $ =
2017-11-24 05:56 METAR KBHB 241056Z AUTO 00000KT 10SM BKN090 M01/M05 A2993 RMK AO2 SLP140
                 T10111050 FZRANO PNO $ =
2017-11-24 04:56 METAR KBHB 240956Z AUTO 27003KT 10SM OVC100 M01/M06 A2992 RMK AO2 SLP137
                 T10061056 FZRANO PNO $ =
2017-11-24 03:56 METAR KBHB 240856Z AUTO 26003KT 10SM SCT100 M01/M06 A2991 RMK AO2 SLP133 6////
                 T10111056 50000 FZRANO PNO $ =
2017-11-24 02:56 METAR KBHB 240756Z AUTO 00000KT 10SM OVC100 M02/M05 A2992 RMK AO2 SLP135
                 T10221050 FZRANO PNO $ =
2017-11-24 01:56 METAR KBHB 240656Z AUTO 00000KT 10SM OVC100 M03/M06 A2992 RMK AO2 SLP136
                 T10281056 FZRANO PNO $ =
2017-11-24 00:56 METAR KBHB 240556Z AUTO 00000KT 10SM CLR M02/M07 A2991 RMK AO2 SLP133 6////
                 T10171067 11006 21022 55007 FZRANO PNO $ =
2017-11-23 23:56 METAR KBHB 240456Z AUTO 24004KT 10SM OVC100 M01/M07 A2991 RMK AO2 SLP132
                 T10111067 FZRANO PNO $ =
2017-11-23 22:56 METAR KBHB 240356Z AUTO 29005KT 10SM OVC090 M01/M07 A2992 RMK AO2 SLP135
                 T10111072 FZRANO PNO $ =
2017-11-23 21:56 METAR KBHB 240256Z AUTO 28004KT 10SM OVC100 M01/M06 A2993 RMK AO2 SLP140 6////
                 T10111061 55004 FZRANO PNO $ =
2017-11-23 20:56 METAR KBHB 240156Z AUTO 00000KT 10SM OVC110 M02/M07 A2993 RMK AO2 SLP139
                 T10221067 FZRANO PNO $ =
2017-11-23 19:56 METAR KBHB 240056Z AUTO 00000KT 10SM BKN100 M02/M07 A2994 RMK AO2 SLP141
                 T10171072 FZRANO PNO $ =
2017-11-23 18:56 METAR KBHB 232356Z AUTO 33004KT 10SM BKN110 M02/M07 A2995 RMK AO2 SLP144 6////
                 T10171072 10022 21017 400611022 51007 FZRANO PNO $ =
2017-11-23 17:56 METAR KBHB 232256Z AUTO 34003KT 10SM OVC120 M01/M07 A2994 RMK AO2 SLP144
                 T10111072 FZRANO PNO $ =
2017-11-23 16:56 METAR KBHB 232156Z AUTO 00000KT 10SM CLR M01/M08 A2994 RMK AO2 SLP142 T10061078
                 FZRANO PNO $ =
2017-11-23 15:56 METAR KBHB 232056Z AUTO 30003KT 10SM CLR 01/M09 A2993 RMK AO2 SLP138 6////
                 T00061089 53009 FZRANO PNO $ =
2017-11-23 14:56 METAR KBHB 231956Z AUTO VRB05KT 10SM CLR 02/M09 A2992 RMK AO2 SLP136 T00171089
                 FZRANO PNO $ =
2017-11-23 13:56 METAR KBHB 231856Z AUTO 30008KT 10SM CLR 02/M08 A2990 RMK AO2 SLP129 T00171083
                 FZRANO PNO $ =
2017-11-23 12:56 METAR KBHB 231756Z AUTO 31010G14KT 10SM CLR 01/M08 A2990 RMK AO2 SLP129 6////
                 T00111083 10011 21022 58012 FZRANO PNO $ =
2017-11-23 11:56 METAR KBHB 231656Z AUTO 29009G14KT 250V320 10SM CLR 01/M08 A2992 RMK AO2 SLP134
                 T00111078 FZRANO PNO $ =
2017-11-23 10:56 METAR KBHB 231556Z AUTO 31009KT 270V330 10SM CLR 01/M08 A2993 RMK AO2 SLP139
                 T00061078 FZRANO PNO $ =
2017-11-23 09:56 METAR KBHB 231456Z AUTO 29011G14KT 10SM CLR M01/M07 A2994 RMK AO2 SLP141 6////
                 T10061072 50013 FZRANO PNO $ =
2017-11-23 08:56 METAR KBHB 231356Z AUTO 30009G14KT 260V340 10SM CLR M01/M07 A2995 RMK AO2 SLP146
                 T10111072 FZRANO PNO $ =

Support USWX by starting your Amazon purchase here.